sensor_id;sensor_type;location;lat;lon;timestamp;temperature;humidity
6662;DHT22;3367;48.714;8.994;2023-02-12T00:01:48;3.90;1.00
6662;DHT22;3367;48.714;8.994;2023-02-12T00:04:15;4.00;1.00
6662;DHT22;3367;48.714;8.994;2023-02-12T00:06:42;3.90;1.00
6662;DHT22;3367;48.714;8.994;2023-02-12T00:09:09;3.90;1.00
6662;DHT22;3367;48.714;8.994;2023-02-12T00:11:35;4.00;1.00
6662;DHT22;3367;48.714;8.994;2023-02-12T00:14:03;4.00;1.00
6662;DHT22;3367;48.714;8.994;2023-02-12T00:16:30;4.00;1.00
6662;DHT22;3367;48.714;8.994;2023-02-12T00:18:57;4.00;1.00
6662;DHT22;3367;48.714;8.994;2023-02-12T00:21:25;4.00;1.00
6662;DHT22;3367;48.714;8.994;2023-02-12T00:23:52;4.10;1.00
6662;DHT22;3367;48.714;8.994;2023-02-12T00:26:20;4.00;1.00
6662;DHT22;3367;48.714;8.994;2023-02-12T00:28:47;4.00;1.00
6662;DHT22;3367;48.714;8.994;2023-02-12T00:31:18;4.00;1.00
6662;DHT22;3367;48.714;8.994;2023-02-12T00:33:46;4.00;1.00
6662;DHT22;3367;48.714;8.994;2023-02-12T00:36:14;4.00;1.00
6662;DHT22;3367;48.714;8.994;2023-02-12T00:38:41;4.00;1.00
6662;DHT22;3367;48.714;8.994;2023-02-12T00:41:08;4.00;1.00
6662;DHT22;3367;48.714;8.994;2023-02-12T00:43:35;4.00;1.00
6662;DHT22;3367;48.714;8.994;2023-02-12T00:46:02;4.00;1.00
6662;DHT22;3367;48.714;8.994;2023-02-12T00:48:32;4.00;10.40
6662;DHT22;3367;48.714;8.994;2023-02-12T00:50:59;3.90;18.70
6662;DHT22;3367;48.714;8.994;2023-02-12T00:53:27;4.00;16.40
6662;DHT22;3367;48.714;8.994;2023-02-12T00:55:53;3.90;28.00
6662;DHT22;3367;48.714;8.994;2023-02-12T00:58:20;4.00;60.60
6662;DHT22;3367;48.714;8.994;2023-02-12T01:00:47;3.90;90.80
6662;DHT22;3367;48.714;8.994;2023-02-12T01:03:14;3.90;74.50
6662;DHT22;3367;48.714;8.994;2023-02-12T01:05:43;3.90;87.90
6662;DHT22;3367;48.714;8.994;2023-02-12T01:08:10;4.10;86.70
6662;DHT22;3367;48.714;8.994;2023-02-12T01:10:37;4.00;92.80
6662;DHT22;3367;48.714;8.994;2023-02-12T01:13:04;4.00;94.20
6662;DHT22;3367;48.714;8.994;2023-02-12T01:15:31;3.90;93.20
6662;DHT22;3367;48.714;8.994;2023-02-12T01:17:58;3.90;99.80
6662;DHT22;3367;48.714;8.994;2023-02-12T01:20:26;3.90;99.90
6662;DHT22;3367;48.714;8.994;2023-02-12T01:22:54;3.80;99.90
6662;DHT22;3367;48.714;8.994;2023-02-12T01:25:21;3.80;99.90
6662;DHT22;3367;48.714;8.994;2023-02-12T01:27:48;3.80;99.90
6662;DHT22;3367;48.714;8.994;2023-02-12T01:30:15;3.70;99.90
6662;DHT22;3367;48.714;8.994;2023-02-12T01:32:42;3.80;99.90
6662;DHT22;3367;48.714;8.994;2023-02-12T01:35:09;3.80;99.90
6662;DHT22;3367;48.714;8.994;2023-02-12T01:37:36;3.80;99.90
6662;DHT22;3367;48.714;8.994;2023-02-12T01:40:06;3.80;99.90
6662;DHT22;3367;48.714;8.994;2023-02-12T01:42:33;3.80;99.90
6662;DHT22;3367;48.714;8.994;2023-02-12T01:45:37;3.80;99.90
6662;DHT22;3367;48.714;8.994;2023-02-12T01:48:08;3.80;99.90
6662;DHT22;3367;48.714;8.994;2023-02-12T01:50:35;3.80;99.90
6662;DHT22;3367;48.714;8.994;2023-02-12T01:53:01;3.80;99.90
6662;DHT22;3367;48.714;8.994;2023-02-12T01:55:29;3.80;99.90
6662;DHT22;3367;48.714;8.994;2023-02-12T01:57:56;3.80;99.90
6662;DHT22;3367;48.714;8.994;2023-02-12T02:00:24;3.80;99.90
6662;DHT22;3367;48.714;8.994;2023-02-12T02:02:54;3.80;99.90
6662;DHT22;3367;48.714;8.994;2023-02-12T02:05:27;3.80;99.90
6662;DHT22;3367;48.714;8.994;2023-02-12T02:07:56;3.80;99.90
6662;DHT22;3367;48.714;8.994;2023-02-12T02:10:22;3.80;99.90
6662;DHT22;3367;48.714;8.994;2023-02-12T02:12:50;3.80;99.90
6662;DHT22;3367;48.714;8.994;2023-02-12T02:15:36;3.90;99.90
6662;DHT22;3367;48.714;8.994;2023-02-12T02:18:07;3.90;99.90
6662;DHT22;3367;48.714;8.994;2023-02-12T02:23:55;3.90;99.90
6662;DHT22;3367;48.714;8.994;2023-02-12T02:26:41;3.90;99.90
6662;DHT22;3367;48.714;8.994;2023-02-12T02:29:30;3.90;1.00
6662;DHT22;3367;48.714;8.994;2023-02-12T02:32:07;3.90;1.00
6662;DHT22;3367;48.714;8.994;2023-02-12T02:34:39;3.90;1.00
6662;DHT22;3367;48.714;8.994;2023-02-12T02:37:13;3.90;1.00
6662;DHT22;3367;48.714;8.994;2023-02-12T02:39:45;3.90;1.00
6662;DHT22;3367;48.714;8.994;2023-02-12T02:42:15;3.90;1.00
6662;DHT22;3367;48.714;8.994;2023-02-12T02:44:49;3.90;1.00
6662;DHT22;3367;48.714;8.994;2023-02-12T02:47:21;3.90;1.00
6662;DHT22;3367;48.714;8.994;2023-02-12T02:49:52;3.90;1.00
6662;DHT22;3367;48.714;8.994;2023-02-12T02:52:25;3.90;1.00
6662;DHT22;3367;48.714;8.994;2023-02-12T02:54:57;3.90;1.00
6662;DHT22;3367;48.714;8.994;2023-02-12T02:57:29;3.90;50.10
6662;DHT22;3367;48.714;8.994;2023-02-12T03:00:00;3.90;99.90
6662;DHT22;3367;48.714;8.994;2023-02-12T03:02:34;3.90;99.90
6662;DHT22;3367;48.714;8.994;2023-02-12T03:05:05;3.90;99.90
6662;DHT22;3367;48.714;8.994;2023-02-12T03:07:36;3.80;99.90
6662;DHT22;3367;48.714;8.994;2023-02-12T03:10:09;3.80;99.90
6662;DHT22;3367;48.714;8.994;2023-02-12T03:12:42;3.80;99.90
6662;DHT22;3367;48.714;8.994;2023-02-12T03:15:13;3.80;99.90
6662;DHT22;3367;48.714;8.994;2023-02-12T03:17:45;3.80;99.90
6662;DHT22;3367;48.714;8.994;2023-02-12T03:20:16;3.80;99.90
6662;DHT22;3367;48.714;8.994;2023-02-12T03:22:48;3.70;1.00
6662;DHT22;3367;48.714;8.994;2023-02-12T03:25:20;3.70;1.00
6662;DHT22;3367;48.714;8.994;2023-02-12T03:27:52;3.70;1.00
6662;DHT22;3367;48.714;8.994;2023-02-12T03:30:23;3.70;1.00
6662;DHT22;3367;48.714;8.994;2023-02-12T03:32:56;3.70;1.00
6662;DHT22;3367;48.714;8.994;2023-02-12T03:35:30;3.70;1.00
6662;DHT22;3367;48.714;8.994;2023-02-12T03:38:03;3.70;1.00
6662;DHT22;3367;48.714;8.994;2023-02-12T03:40:36;3.70;1.00
6662;DHT22;3367;48.714;8.994;2023-02-12T03:43:08;3.70;1.00
6662;DHT22;3367;48.714;8.994;2023-02-12T03:45:45;3.70;1.00
6662;DHT22;3367;48.714;8.994;2023-02-12T03:48:21;3.70;1.00
6662;DHT22;3367;48.714;8.994;2023-02-12T03:50:52;3.70;1.00
6662;DHT22;3367;48.714;8.994;2023-02-12T03:53:20;3.70;1.00
6662;DHT22;3367;48.714;8.994;2023-02-12T03:55:52;3.70;1.00
6662;DHT22;3367;48.714;8.994;2023-02-12T03:58:23;3.70;1.00
6662;DHT22;3367;48.714;8.994;2023-02-12T04:00:51;3.70;1.00
6662;DHT22;3367;48.714;8.994;2023-02-12T04:03:19;3.70;1.00
6662;DHT22;3367;48.714;8.994;2023-02-12T04:05:46;3.70;1.00
6662;DHT22;3367;48.714;8.994;2023-02-12T04:08:13;3.70;1.00
6662;DHT22;3367;48.714;8.994;2023-02-12T04:10:50;3.70;1.00
6662;DHT22;3367;48.714;8.994;2023-02-12T04:13:23;3.80;1.00
6662;DHT22;3367;48.714;8.994;2023-02-12T04:16:06;3.70;1.00
6662;DHT22;3367;48.714;8.994;2023-02-12T04:18:42;3.70;1.00
6662;DHT22;3367;48.714;8.994;2023-02-12T04:21:15;3.70;1.00
6662;DHT22;3367;48.714;8.994;2023-02-12T04:23:49;3.70;1.00
6662;DHT22;3367;48.714;8.994;2023-02-12T04:26:23;3.70;1.00
6662;DHT22;3367;48.714;8.994;2023-02-12T04:28:59;3.70;1.00
6662;DHT22;3367;48.714;8.994;2023-02-12T04:31:30;3.70;1.00
6662;DHT22;3367;48.714;8.994;2023-02-12T04:34:06;3.70;1.00
6662;DHT22;3367;48.714;8.994;2023-02-12T04:36:37;3.70;1.00
6662;DHT22;3367;48.714;8.994;2023-02-12T04:39:08;3.60;1.00
6662;DHT22;3367;48.714;8.994;2023-02-12T04:41:37;3.60;1.00
6662;DHT22;3367;48.714;8.994;2023-02-12T04:44:21;3.60;1.00
6662;DHT22;3367;48.714;8.994;2023-02-12T04:46:48;3.60;1.00
6662;DHT22;3367;48.714;8.994;2023-02-12T04:49:18;3.60;1.00
6662;DHT22;3367;48.714;8.994;2023-02-12T04:51:46;3.60;1.00
6662;DHT22;3367;48.714;8.994;2023-02-12T04:54:13;3.60;1.00
6662;DHT22;3367;48.714;8.994;2023-02-12T04:56:40;3.50;1.00
6662;DHT22;3367;48.714;8.994;2023-02-12T04:59:06;3.50;1.00
6662;DHT22;3367;48.714;8.994;2023-02-12T05:01:34;3.50;1.00
6662;DHT22;3367;48.714;8.994;2023-02-12T05:04:02;3.50;1.00
6662;DHT22;3367;48.714;8.994;2023-02-12T05:06:30;3.50;1.00
6662;DHT22;3367;48.714;8.994;2023-02-12T05:09:00;3.60;1.00
6662;DHT22;3367;48.714;8.994;2023-02-12T05:11:26;3.50;1.00
6662;DHT22;3367;48.714;8.994;2023-02-12T05:13:53;3.50;1.00
6662;DHT22;3367;48.714;8.994;2023-02-12T05:16:21;3.50;1.00
6662;DHT22;3367;48.714;8.994;2023-02-12T05:18:47;3.50;1.00
6662;DHT22;3367;48.714;8.994;2023-02-12T05:21:15;3.50;1.00
6662;DHT22;3367;48.714;8.994;2023-02-12T05:23:43;3.50;1.00
6662;DHT22;3367;48.714;8.994;2023-02-12T05:26:12;3.50;1.00
6662;DHT22;3367;48.714;8.994;2023-02-12T05:28:39;3.60;1.00
6662;DHT22;3367;48.714;8.994;2023-02-12T05:31:07;3.50;1.00
6662;DHT22;3367;48.714;8.994;2023-02-12T05:33:34;3.50;1.00
6662;DHT22;3367;48.714;8.994;2023-02-12T05:36:06;3.50;1.00
6662;DHT22;3367;48.714;8.994;2023-02-12T05:38:33;3.40;1.00
6662;DHT22;3367;48.714;8.994;2023-02-12T05:41:02;3.40;1.00
6662;DHT22;3367;48.714;8.994;2023-02-12T05:43:30;3.40;1.00
6662;DHT22;3367;48.714;8.994;2023-02-12T05:45:58;3.40;1.00
6662;DHT22;3367;48.714;8.994;2023-02-12T05:48:25;3.40;1.00
6662;DHT22;3367;48.714;8.994;2023-02-12T05:50:51;3.40;6.50
6662;DHT22;3367;48.714;8.994;2023-02-12T05:53:18;3.30;17.80
6662;DHT22;3367;48.714;8.994;2023-02-12T05:55:45;3.30;92.10
6662;DHT22;3367;48.714;8.994;2023-02-12T05:58:13;3.30;99.90
6662;DHT22;3367;48.714;8.994;2023-02-12T06:00:40;3.30;99.90
6662;DHT22;3367;48.714;8.994;2023-02-12T06:03:07;3.30;99.90
6662;DHT22;3367;48.714;8.994;2023-02-12T06:05:34;3.30;99.90
6662;DHT22;3367;48.714;8.994;2023-02-12T06:08:00;3.30;99.90
6662;DHT22;3367;48.714;8.994;2023-02-12T06:10:27;3.30;99.90
6662;DHT22;3367;48.714;8.994;2023-02-12T06:12:54;3.30;1.00
6662;DHT22;3367;48.714;8.994;2023-02-12T06:15:23;3.30;1.00
6662;DHT22;3367;48.714;8.994;2023-02-12T06:17:49;3.30;1.00
6662;DHT22;3367;48.714;8.994;2023-02-12T06:20:16;3.30;1.00
6662;DHT22;3367;48.714;8.994;2023-02-12T06:22:43;3.30;1.00
6662;DHT22;3367;48.714;8.994;2023-02-12T06:25:09;3.30;1.00
6662;DHT22;3367;48.714;8.994;2023-02-12T06:27:36;3.20;1.00
6662;DHT22;3367;48.714;8.994;2023-02-12T06:30:04;3.20;1.00
6662;DHT22;3367;48.714;8.994;2023-02-12T06:32:32;3.30;1.00
6662;DHT22;3367;48.714;8.994;2023-02-12T06:34:59;3.40;1.00
6662;DHT22;3367;48.714;8.994;2023-02-12T06:37:26;3.30;1.00
6662;DHT22;3367;48.714;8.994;2023-02-12T06:39:52;3.30;1.00
6662;DHT22;3367;48.714;8.994;2023-02-12T06:42:19;3.30;56.30
6662;DHT22;3367;48.714;8.994;2023-02-12T06:44:46;3.30;99.90
6662;DHT22;3367;48.714;8.994;2023-02-12T06:47:13;3.30;99.90
6662;DHT22;3367;48.714;8.994;2023-02-12T06:49:41;3.30;99.90
6662;DHT22;3367;48.714;8.994;2023-02-12T06:52:08;3.30;99.90
6662;DHT22;3367;48.714;8.994;2023-02-12T06:54:35;3.30;1.00
6662;DHT22;3367;48.714;8.994;2023-02-12T06:57:02;3.40;1.00
6662;DHT22;3367;48.714;8.994;2023-02-12T06:59:29;3.40;1.00
6662;DHT22;3367;48.714;8.994;2023-02-12T07:01:55;3.30;1.00
6662;DHT22;3367;48.714;8.994;2023-02-12T07:04:22;3.30;1.00
6662;DHT22;3367;48.714;8.994;2023-02-12T07:06:50;3.30;1.00
6662;DHT22;3367;48.714;8.994;2023-02-12T07:09:17;3.30;1.00
6662;DHT22;3367;48.714;8.994;2023-02-12T07:11:44;3.20;1.00
6662;DHT22;3367;48.714;8.994;2023-02-12T07:14:13;3.20;1.00
6662;DHT22;3367;48.714;8.994;2023-02-12T07:16:40;3.20;1.00
6662;DHT22;3367;48.714;8.994;2023-02-12T07:19:09;3.20;1.00
6662;DHT22;3367;48.714;8.994;2023-02-12T07:21:37;3.40;1.00
6662;DHT22;3367;48.714;8.994;2023-02-12T07:24:05;3.30;1.00
6662;DHT22;3367;48.714;8.994;2023-02-12T07:26:33;3.40;1.00
6662;DHT22;3367;48.714;8.994;2023-02-12T07:29:00;3.40;1.00
6662;DHT22;3367;48.714;8.994;2023-02-12T07:31:27;3.50;1.00
6662;DHT22;3367;48.714;8.994;2023-02-12T07:33:55;3.50;1.00
6662;DHT22;3367;48.714;8.994;2023-02-12T07:36:22;3.50;1.00
6662;DHT22;3367;48.714;8.994;2023-02-12T07:38:49;3.50;1.00
6662;DHT22;3367;48.714;8.994;2023-02-12T07:41:19;3.60;1.00
6662;DHT22;3367;48.714;8.994;2023-02-12T07:43:48;3.60;1.00
6662;DHT22;3367;48.714;8.994;2023-02-12T07:46:17;3.70;1.00
6662;DHT22;3367;48.714;8.994;2023-02-12T07:48:44;3.80;1.00
6662;DHT22;3367;48.714;8.994;2023-02-12T07:51:13;3.80;1.00
6662;DHT22;3367;48.714;8.994;2023-02-12T07:53:40;3.90;1.00
6662;DHT22;3367;48.714;8.994;2023-02-12T07:56:10;4.00;99.90
6662;DHT22;3367;48.714;8.994;2023-02-12T07:58:39;3.90;99.90
6662;DHT22;3367;48.714;8.994;2023-02-12T08:01:14;3.90;1.00
6662;DHT22;3367;48.714;8.994;2023-02-12T08:03:42;4.00;1.00
6662;DHT22;3367;48.714;8.994;2023-02-12T08:06:10;4.00;1.00
6662;DHT22;3367;48.714;8.994;2023-02-12T08:08:38;4.10;1.00
6662;DHT22;3367;48.714;8.994;2023-02-12T08:11:05;4.20;1.00
6662;DHT22;3367;48.714;8.994;2023-02-12T08:13:33;4.40;1.00
6662;DHT22;3367;48.714;8.994;2023-02-12T08:16:02;4.40;99.90
6662;DHT22;3367;48.714;8.994;2023-02-12T08:18:30;4.50;99.90
6662;DHT22;3367;48.714;8.994;2023-02-12T08:21:01;4.60;99.90
6662;DHT22;3367;48.714;8.994;2023-02-12T08:23:28;4.60;56.60
6662;DHT22;3367;48.714;8.994;2023-02-12T08:26:07;4.70;1.00
6662;DHT22;3367;48.714;8.994;2023-02-12T08:28:34;4.90;1.00
6662;DHT22;3367;48.714;8.994;2023-02-12T08:31:05;5.00;1.00
6662;DHT22;3367;48.714;8.994;2023-02-12T08:33:31;5.20;1.00
6662;DHT22;3367;48.714;8.994;2023-02-12T08:36:03;5.30;1.00
6662;DHT22;3367;48.714;8.994;2023-02-12T08:38:31;5.40;99.90
6662;DHT22;3367;48.714;8.994;2023-02-12T08:41:00;5.30;98.60
6662;DHT22;3367;48.714;8.994;2023-02-12T08:43:28;5.50;1.00
6662;DHT22;3367;48.714;8.994;2023-02-12T08:46:00;5.40;1.00
6662;DHT22;3367;48.714;8.994;2023-02-12T08:48:28;5.40;1.00
6662;DHT22;3367;48.714;8.994;2023-02-12T08:50:55;5.50;1.00
6662;DHT22;3367;48.714;8.994;2023-02-12T08:53:22;5.50;1.00
6662;DHT22;3367;48.714;8.994;2023-02-12T08:55:49;5.50;1.00
6662;DHT22;3367;48.714;8.994;2023-02-12T08:58:15;5.60;1.00
6662;DHT22;3367;48.714;8.994;2023-02-12T09:00:42;5.70;1.00
6662;DHT22;3367;48.714;8.994;2023-02-12T09:03:09;5.80;1.00
6662;DHT22;3367;48.714;8.994;2023-02-12T09:05:39;5.90;1.00
6662;DHT22;3367;48.714;8.994;2023-02-12T09:08:06;6.00;99.90
6662;DHT22;3367;48.714;8.994;2023-02-12T09:10:33;6.00;99.90
6662;DHT22;3367;48.714;8.994;2023-02-12T09:13:00;6.10;99.90
6662;DHT22;3367;48.714;8.994;2023-02-12T09:15:27;6.10;99.90
6662;DHT22;3367;48.714;8.994;2023-02-12T09:17:53;6.20;99.90
6662;DHT22;3367;48.714;8.994;2023-02-12T09:20:20;6.20;99.90
6662;DHT22;3367;48.714;8.994;2023-02-12T09:22:48;6.20;68.70
6662;DHT22;3367;48.714;8.994;2023-02-12T09:25:15;6.30;99.90
6662;DHT22;3367;48.714;8.994;2023-02-12T09:27:42;6.40;86.60
6662;DHT22;3367;48.714;8.994;2023-02-12T09:30:10;6.30;95.80
6662;DHT22;3367;48.714;8.994;2023-02-12T09:32:36;6.50;84.40
6662;DHT22;3367;48.714;8.994;2023-02-12T09:35:04;6.60;50.50
6662;DHT22;3367;48.714;8.994;2023-02-12T09:37:30;6.60;1.00
6662;DHT22;3367;48.714;8.994;2023-02-12T09:39:59;6.70;1.00
6662;DHT22;3367;48.714;8.994;2023-02-12T09:42:33;6.70;1.00
6662;DHT22;3367;48.714;8.994;2023-02-12T09:45:09;6.70;1.00
6662;DHT22;3367;48.714;8.994;2023-02-12T09:47:42;6.70;1.00
6662;DHT22;3367;48.714;8.994;2023-02-12T09:50:23;6.80;1.00
6662;DHT22;3367;48.714;8.994;2023-02-12T09:52:50;6.80;1.00
6662;DHT22;3367;48.714;8.994;2023-02-12T09:55:19;6.80;1.00
6662;DHT22;3367;48.714;8.994;2023-02-12T09:57:46;6.70;1.00
6662;DHT22;3367;48.714;8.994;2023-02-12T10:00:15;6.80;1.00
6662;DHT22;3367;48.714;8.994;2023-02-12T10:02:44;6.80;1.00
6662;DHT22;3367;48.714;8.994;2023-02-12T10:05:15;6.80;1.00
6662;DHT22;3367;48.714;8.994;2023-02-12T10:07:56;6.90;1.00
6662;DHT22;3367;48.714;8.994;2023-02-12T10:10:40;6.90;1.00
6662;DHT22;3367;48.714;8.994;2023-02-12T10:13:13;6.90;1.00
6662;DHT22;3367;48.714;8.994;2023-02-12T10:15:49;6.80;1.00
6662;DHT22;3367;48.714;8.994;2023-02-12T10:18:38;7.00;1.00
6662;DHT22;3367;48.714;8.994;2023-02-12T10:21:16;7.10;1.00
6662;DHT22;3367;48.714;8.994;2023-02-12T10:24:06;7.20;1.00
6662;DHT22;3367;48.714;8.994;2023-02-12T10:26:40;7.10;1.00
6662;DHT22;3367;48.714;8.994;2023-02-12T10:29:13;7.10;1.00
6662;DHT22;3367;48.714;8.994;2023-02-12T10:31:43;7.30;1.00
6662;DHT22;3367;48.714;8.994;2023-02-12T10:34:15;7.50;1.00
6662;DHT22;3367;48.714;8.994;2023-02-12T10:36:44;7.60;1.00
6662;DHT22;3367;48.714;8.994;2023-02-12T10:39:15;7.60;1.00
6662;DHT22;3367;48.714;8.994;2023-02-12T10:41:47;7.60;1.00
6662;DHT22;3367;48.714;8.994;2023-02-12T10:44:15;7.70;1.00
6662;DHT22;3367;48.714;8.994;2023-02-12T10:46:41;7.90;1.00
6662;DHT22;3367;48.714;8.994;2023-02-12T10:49:10;7.90;1.00
6662;DHT22;3367;48.714;8.994;2023-02-12T10:52:02;7.90;1.00
6662;DHT22;3367;48.714;8.994;2023-02-12T10:54:41;7.80;1.00
6662;DHT22;3367;48.714;8.994;2023-02-12T10:57:17;7.60;1.00
6662;DHT22;3367;48.714;8.994;2023-02-12T10:59:46;7.40;1.00
6662;DHT22;3367;48.714;8.994;2023-02-12T11:02:25;7.20;1.00
6662;DHT22;3367;48.714;8.994;2023-02-12T11:04:53;7.40;1.00
6662;DHT22;3367;48.714;8.994;2023-02-12T11:07:20;7.40;1.00
6662;DHT22;3367;48.714;8.994;2023-02-12T11:09:50;7.50;1.00
6662;DHT22;3367;48.714;8.994;2023-02-12T11:12:29;7.60;1.00
6662;DHT22;3367;48.714;8.994;2023-02-12T11:14:58;7.70;1.00
6662;DHT22;3367;48.714;8.994;2023-02-12T11:17:27;7.80;1.00
6662;DHT22;3367;48.714;8.994;2023-02-12T11:20:18;7.60;1.00
6662;DHT22;3367;48.714;8.994;2023-02-12T11:22:51;7.60;1.00
6662;DHT22;3367;48.714;8.994;2023-02-12T11:25:19;7.60;1.00
6662;DHT22;3367;48.714;8.994;2023-02-12T11:28:00;7.70;1.00
6662;DHT22;3367;48.714;8.994;2023-02-12T11:30:27;7.70;1.00
6662;DHT22;3367;48.714;8.994;2023-02-12T11:32:54;7.80;1.00
6662;DHT22;3367;48.714;8.994;2023-02-12T11:35:48;7.80;1.00
6662;DHT22;3367;48.714;8.994;2023-02-12T11:38:20;7.80;1.00
6662;DHT22;3367;48.714;8.994;2023-02-12T11:40:56;7.80;1.00
6662;DHT22;3367;48.714;8.994;2023-02-12T11:43:26;7.80;1.00
6662;DHT22;3367;48.714;8.994;2023-02-12T11:45:55;7.70;1.00
6662;DHT22;3367;48.714;8.994;2023-02-12T11:48:25;7.80;1.00
6662;DHT22;3367;48.714;8.994;2023-02-12T11:50:54;7.80;1.00
6662;DHT22;3367;48.714;8.994;2023-02-12T11:53:24;7.70;1.00
6662;DHT22;3367;48.714;8.994;2023-02-12T11:55:55;7.70;1.00
6662;DHT22;3367;48.714;8.994;2023-02-12T11:58:24;7.60;1.00
6662;DHT22;3367;48.714;8.994;2023-02-12T12:00:57;7.70;1.00
6662;DHT22;3367;48.714;8.994;2023-02-12T12:03:29;7.70;1.00
6662;DHT22;3367;48.714;8.994;2023-02-12T12:06:01;7.80;1.00
6662;DHT22;3367;48.714;8.994;2023-02-12T12:08:34;7.80;1.00
6662;DHT22;3367;48.714;8.994;2023-02-12T12:11:07;8.00;1.00
6662;DHT22;3367;48.714;8.994;2023-02-12T12:13:40;8.20;1.00
6662;DHT22;3367;48.714;8.994;2023-02-12T12:16:12;8.40;1.00
6662;DHT22;3367;48.714;8.994;2023-02-12T12:19:03;8.50;1.00
6662;DHT22;3367;48.714;8.994;2023-02-12T12:21:56;8.60;1.00
6662;DHT22;3367;48.714;8.994;2023-02-12T12:24:30;8.70;1.00
6662;DHT22;3367;48.714;8.994;2023-02-12T12:27:06;8.70;1.00
6662;DHT22;3367;48.714;8.994;2023-02-12T12:29:52;8.60;1.00
6662;DHT22;3367;48.714;8.994;2023-02-12T12:32:23;8.50;1.00
6662;DHT22;3367;48.714;8.994;2023-02-12T12:34:52;8.70;1.00
6662;DHT22;3367;48.714;8.994;2023-02-12T12:37:27;8.70;1.00
6662;DHT22;3367;48.714;8.994;2023-02-12T12:40:14;8.70;1.00
6662;DHT22;3367;48.714;8.994;2023-02-12T12:43:01;8.70;1.00
6662;DHT22;3367;48.714;8.994;2023-02-12T12:48:34;8.80;99.90
6662;DHT22;3367;48.714;8.994;2023-02-12T12:51:27;8.90;99.90
6662;DHT22;3367;48.714;8.994;2023-02-12T12:54:10;9.10;99.90
6662;DHT22;3367;48.714;8.994;2023-02-12T12:56:46;9.30;99.90
6662;DHT22;3367;48.714;8.994;2023-02-12T13:06:00;9.20;99.90
6662;DHT22;3367;48.714;8.994;2023-02-12T13:08:39;8.80;99.90
6662;DHT22;3367;48.714;8.994;2023-02-12T13:11:15;8.80;99.90
6662;DHT22;3367;48.714;8.994;2023-02-12T13:13:46;8.60;99.90
6662;DHT22;3367;48.714;8.994;2023-02-12T13:16:17;8.50;99.90
6662;DHT22;3367;48.714;8.994;2023-02-12T13:18:55;8.40;99.90
6662;DHT22;3367;48.714;8.994;2023-02-12T13:21:33;8.50;99.90
6662;DHT22;3367;48.714;8.994;2023-02-12T13:24:10;8.70;99.90
6662;DHT22;3367;48.714;8.994;2023-02-12T13:26:46;8.80;99.90
6662;DHT22;3367;48.714;8.994;2023-02-12T13:29:18;9.00;99.90
6662;DHT22;3367;48.714;8.994;2023-02-12T13:31:48;9.20;99.90
6662;DHT22;3367;48.714;8.994;2023-02-12T13:34:17;9.30;99.90
6662;DHT22;3367;48.714;8.994;2023-02-12T13:36:47;9.00;99.90
6662;DHT22;3367;48.714;8.994;2023-02-12T13:39:21;8.80;99.90
6662;DHT22;3367;48.714;8.994;2023-02-12T13:41:59;8.60;99.90
6662;DHT22;3367;48.714;8.994;2023-02-12T13:44:30;8.60;99.90
6662;DHT22;3367;48.714;8.994;2023-02-12T13:47:04;8.70;99.90
6662;DHT22;3367;48.714;8.994;2023-02-12T13:49:40;8.70;99.90
6662;DHT22;3367;48.714;8.994;2023-02-12T13:52:18;8.70;99.90
6662;DHT22;3367;48.714;8.994;2023-02-12T13:54:53;8.60;99.90
6662;DHT22;3367;48.714;8.994;2023-02-12T13:57:23;8.60;99.90
6662;DHT22;3367;48.714;8.994;2023-02-12T13:59:50;8.60;99.90
6662;DHT22;3367;48.714;8.994;2023-02-12T14:02:43;8.50;99.90
6662;DHT22;3367;48.714;8.994;2023-02-12T14:05:25;8.40;99.90
6662;DHT22;3367;48.714;8.994;2023-02-12T14:07:55;8.30;99.90
6662;DHT22;3367;48.714;8.994;2023-02-12T14:10:27;8.40;99.90
6662;DHT22;3367;48.714;8.994;2023-02-12T14:12:57;8.40;99.90
6662;DHT22;3367;48.714;8.994;2023-02-12T14:15:30;8.40;99.90
6662;DHT22;3367;48.714;8.994;2023-02-12T14:18:11;8.30;99.90
6662;DHT22;3367;48.714;8.994;2023-02-12T14:20:46;8.20;99.90
6662;DHT22;3367;48.714;8.994;2023-02-12T14:23:32;8.10;99.90
6662;DHT22;3367;48.714;8.994;2023-02-12T14:26:03;8.10;99.90
6662;DHT22;3367;48.714;8.994;2023-02-12T14:28:48;8.20;99.90
6662;DHT22;3367;48.714;8.994;2023-02-12T14:31:31;8.20;99.90
6662;DHT22;3367;48.714;8.994;2023-02-12T14:37:32;8.30;99.90
6662;DHT22;3367;48.714;8.994;2023-02-12T14:43:27;8.30;99.90
6662;DHT22;3367;48.714;8.994;2023-02-12T14:45:54;8.20;99.90
6662;DHT22;3367;48.714;8.994;2023-02-12T14:48:43;8.20;99.90
6662;DHT22;3367;48.714;8.994;2023-02-12T14:51:16;8.20;99.90
6662;DHT22;3367;48.714;8.994;2023-02-12T14:53:46;8.20;99.90
6662;DHT22;3367;48.714;8.994;2023-02-12T14:56:18;8.20;99.90
6662;DHT22;3367;48.714;8.994;2023-02-12T14:58:47;8.30;99.90
6662;DHT22;3367;48.714;8.994;2023-02-12T15:01:14;8.50;99.90
6662;DHT22;3367;48.714;8.994;2023-02-12T15:03:45;9.10;99.90
6662;DHT22;3367;48.714;8.994;2023-02-12T15:06:16;9.40;99.90
6662;DHT22;3367;48.714;8.994;2023-02-12T15:08:50;9.30;99.90
6662;DHT22;3367;48.714;8.994;2023-02-12T15:11:25;9.10;99.90
6662;DHT22;3367;48.714;8.994;2023-02-12T15:13:59;8.70;99.90
6662;DHT22;3367;48.714;8.994;2023-02-12T15:16:32;8.60;99.90
6662;DHT22;3367;48.714;8.994;2023-02-12T15:19:04;8.40;99.90
6662;DHT22;3367;48.714;8.994;2023-02-12T15:21:36;8.30;99.90
6662;DHT22;3367;48.714;8.994;2023-02-12T15:24:06;8.20;99.90
6662;DHT22;3367;48.714;8.994;2023-02-12T15:26:38;8.10;99.90
6662;DHT22;3367;48.714;8.994;2023-02-12T15:29:13;8.10;99.90
6662;DHT22;3367;48.714;8.994;2023-02-12T15:31:41;8.00;99.90
6662;DHT22;3367;48.714;8.994;2023-02-12T15:34:17;8.00;99.90
6662;DHT22;3367;48.714;8.994;2023-02-12T15:36:46;7.90;99.90
6662;DHT22;3367;48.714;8.994;2023-02-12T15:39:16;7.90;99.90
6662;DHT22;3367;48.714;8.994;2023-02-12T15:41:45;7.80;99.90
6662;DHT22;3367;48.714;8.994;2023-02-12T15:44:22;7.80;99.90
6662;DHT22;3367;48.714;8.994;2023-02-12T15:46:56;7.70;99.90
6662;DHT22;3367;48.714;8.994;2023-02-12T15:49:27;7.60;99.90
6662;DHT22;3367;48.714;8.994;2023-02-12T15:51:55;7.60;99.90
6662;DHT22;3367;48.714;8.994;2023-02-12T15:54:23;7.50;99.90
6662;DHT22;3367;48.714;8.994;2023-02-12T15:56:50;7.50;1.00
6662;DHT22;3367;48.714;8.994;2023-02-12T15:59:21;7.40;1.00
6662;DHT22;3367;48.714;8.994;2023-02-12T16:01:53;7.40;1.00
6662;DHT22;3367;48.714;8.994;2023-02-12T16:04:20;7.40;1.00
6662;DHT22;3367;48.714;8.994;2023-02-12T16:06:48;7.30;1.00
6662;DHT22;3367;48.714;8.994;2023-02-12T16:09:17;7.20;1.00
6662;DHT22;3367;48.714;8.994;2023-02-12T16:11:47;7.10;1.00
6662;DHT22;3367;48.714;8.994;2023-02-12T16:14:21;7.00;1.00
6662;DHT22;3367;48.714;8.994;2023-02-12T16:16:50;6.90;1.00
6662;DHT22;3367;48.714;8.994;2023-02-12T16:19:19;6.80;1.00
6662;DHT22;3367;48.714;8.994;2023-02-12T16:21:48;6.60;1.00
6662;DHT22;3367;48.714;8.994;2023-02-12T16:24:27;6.50;1.00
6662;DHT22;3367;48.714;8.994;2023-02-12T16:26:56;6.40;1.00
6662;DHT22;3367;48.714;8.994;2023-02-12T16:29:24;6.30;1.00
6662;DHT22;3367;48.714;8.994;2023-02-12T16:31:53;6.20;60.30
6662;DHT22;3367;48.714;8.994;2023-02-12T16:34:32;6.10;99.90
6662;DHT22;3367;48.714;8.994;2023-02-12T16:37:00;6.10;99.90
6662;DHT22;3367;48.714;8.994;2023-02-12T16:42:31;5.90;1.00
6662;DHT22;3367;48.714;8.994;2023-02-12T16:44:59;5.80;1.00
6662;DHT22;3367;48.714;8.994;2023-02-12T16:47:26;5.80;1.00
6662;DHT22;3367;48.714;8.994;2023-02-12T16:49:55;5.70;1.00
6662;DHT22;3367;48.714;8.994;2023-02-12T16:52:33;5.70;1.00
6662;DHT22;3367;48.714;8.994;2023-02-12T16:55:00;5.50;1.00
6662;DHT22;3367;48.714;8.994;2023-02-12T16:57:27;5.50;99.90
6662;DHT22;3367;48.714;8.994;2023-02-12T16:59:54;5.50;99.90
6662;DHT22;3367;48.714;8.994;2023-02-12T17:02:22;5.40;99.90
6662;DHT22;3367;48.714;8.994;2023-02-12T17:04:48;5.40;1.00
6662;DHT22;3367;48.714;8.994;2023-02-12T17:07:18;5.40;1.00
6662;DHT22;3367;48.714;8.994;2023-02-12T17:09:45;5.40;1.00
6662;DHT22;3367;48.714;8.994;2023-02-12T17:12:12;5.40;1.00
6662;DHT22;3367;48.714;8.994;2023-02-12T17:14:39;5.40;1.00